Time;durP1;ratioP1;P1;durP2;ratioP2;P2;SDS_P1;SDS_P2;PMS_P1;PMS_P2;Temp;Humidity;BMP_temperature;BMP_pressure;BME280_temperature;BME280_humidity;BME280_pressure;Samples;Min_cycle;Max_cycle;Signal;HPM_P1;HPM_P2
2021/05/13 00:02:22;;;;;;;24.15;3.13;;;;;;;;;;4933414;29;20419;-71
2021/05/13 00:05:28;;;;;;;19.85;3.30;;;;;;;;;;4933378;29;20106;-71
2021/05/13 00:08:32;;;;;;;23.25;3.03;;;;;;;;;;4932608;29;20086;-71
2021/05/13 00:11:37;;;;;;;22.17;2.85;;;;;;;;;;4933886;29;20401;-70
2021/05/13 00:14:42;;;;;;;16.38;2.65;;;;;;;;;;4933891;29;20052;-71
2021/05/13 00:17:46;;;;;;;18.35;2.70;;;;;;;;;;4933448;29;20411;-70
2021/05/13 00:20:50;;;;;;;15.40;2.80;;;;;;;;;;4933373;29;20050;-70
2021/05/13 00:23:55;;;;;;;16.92;2.55;;;;;;;;;;4933668;29;20039;-70
2021/05/13 00:27:02;;;;;;;17.90;2.78;;;;;;;;;;4933401;29;20047;-69
2021/05/13 00:30:07;;;;;;;20.90;2.60;;;;;;;;;;4933971;29;20399;-71
2021/05/13 00:33:12;;;;;;;15.82;2.60;;;;;;;;;;4933634;29;20044;-71
2021/05/13 00:36:16;;;;;;;16.20;2.95;;;;;;;;;;4933075;29;20048;-70
2021/05/13 00:39:23;;;;;;;16.25;2.70;;;;;;;;;;4933690;29;20369;-70
2021/05/13 00:42:28;;;;;;;14.80;2.50;;;;;;;;;;4932806;29;20035;-70
2021/05/13 00:45:33;;;;;;;14.55;2.33;;;;;;;;;;4933355;29;20054;-71
2021/05/13 00:48:39;;;;;;;14.40;2.92;;;;;;;;;;4933234;29;20051;-70
2021/05/13 00:51:45;;;;;;;14.00;2.17;;;;;;;;;;4933241;29;20044;-71
2021/05/13 00:54:49;;;;;;;14.50;3.03;;;;;;;;;;4932594;29;20055;-71
2021/05/13 00:57:54;;;;;;;13.02;2.30;;;;;;;;;;4936894;29;20032;-70
2021/05/13 01:01:11;;;;;;;11.52;2.10;;;;;;;;;;4936070;29;20047;-70
2021/05/13 01:04:16;;;;;;;9.75;1.90;;;;;;;;;;4936638;29;20499;-71
2021/05/13 01:07:21;;;;;;;8.88;1.65;;;;;;;;;;4936965;29;20036;-70
2021/05/13 01:10:26;;;;;;;15.88;2.63;;;;;;;;;;4936290;29;20055;-71
2021/05/13 01:13:35;;;;;;;13.65;2.50;;;;;;;;;;4936545;29;20036;-68
2021/05/13 01:16:49;;;;;;;14.38;2.00;;;;;;;;;;4936753;29;20051;-70
2021/05/13 01:19:56;;;;;;;10.02;2.28;;;;;;;;;;4937146;29;20051;-70
2021/05/13 01:23:02;;;;;;;16.40;4.90;;;;;;;;;;4936693;29;20503;-69
2021/05/13 01:26:06;;;;;;;16.15;2.80;;;;;;;;;;4936808;29;20390;-69
2021/05/13 01:29:11;;;;;;;11.77;2.20;;;;;;;;;;4936345;29;20047;-70
2021/05/13 01:32:17;;;;;;;14.80;2.85;;;;;;;;;;4936209;29;20036;-70
2021/05/13 01:35:22;;;;;;;10.20;2.63;;;;;;;;;;4935228;29;20058;-70
2021/05/13 01:38:26;;;;;;;12.70;2.00;;;;;;;;;;4936339;29;20043;-70
2021/05/13 01:41:30;;;;;;;18.98;2.63;;;;;;;;;;4936168;29;20054;-70
2021/05/13 01:44:35;;;;;;;11.75;2.15;;;;;;;;;;4936207;29;20031;-70
2021/05/13 01:47:39;;;;;;;8.90;2.28;;;;;;;;;;4935366;29;20056;-70
2021/05/13 01:50:47;;;;;;;12.27;1.75;;;;;;;;;;4935115;29;20040;-69
2021/05/13 01:53:51;;;;;;;9.50;1.80;;;;;;;;;;4935848;29;20044;-70
2021/05/13 01:56:37;;;;;;;14.40;2.35;;;;;;;;;;4939640;29;20043;-69
2021/05/13 01:59:41;;;;;;;16.45;2.17;;;;;;;;;;4936180;29;20043;-70
2021/05/13 02:02:48;;;;;;;15.05;2.10;;;;;;;;;;4935189;29;20039;-70
2021/05/13 02:05:52;;;;;;;10.50;2.45;;;;;;;;;;4935714;29;20135;-70
2021/05/13 02:08:57;;;;;;;11.90;2.03;;;;;;;;;;4934999;29;20059;-70
2021/05/13 02:12:03;;;;;;;10.52;2.20;;;;;;;;;;4935778;29;20052;-70
2021/05/13 02:15:09;;;;;;;15.70;2.20;;;;;;;;;;4935097;29;20059;-71
2021/05/13 02:18:13;;;;;;;10.25;2.00;;;;;;;;;;4935727;29;20043;-70
2021/05/13 02:21:18;;;;;;;10.60;2.60;;;;;;;;;;4936047;29;20039;-70
2021/05/13 02:24:23;;;;;;;16.58;3.53;;;;;;;;;;4935573;29;20040;-71
2021/05/13 02:27:27;;;;;;;9.57;2.10;;;;;;;;;;4935477;29;20391;-71
2021/05/13 02:30:37;;;;;;;10.15;2.33;;;;;;;;;;4935394;29;20048;-70
2021/05/13 02:33:47;;;;;;;12.60;2.28;;;;;;;;;;4934646;29;20047;-70
2021/05/13 02:36:52;;;;;;;18.50;2.70;;;;;;;;;;4935018;29;20048;-70
2021/05/13 02:39:56;;;;;;;11.48;2.42;;;;;;;;;;4934073;29;20070;-70
2021/05/13 02:43:03;;;;;;;11.88;2.20;;;;;;;;;;4935138;29;20035;-70
2021/05/13 02:46:07;;;;;;;12.93;2.15;;;;;;;;;;4935198;29;20056;-71
2021/05/13 02:49:11;;;;;;;15.32;2.95;;;;;;;;;;4935166;29;20047;-70
2021/05/13 02:52:15;;;;;;;11.50;2.25;;;;;;;;;;4934250;29;20067;-70
2021/05/13 02:55:19;;;;;;;16.90;2.50;;;;;;;;;;4935098;29;20525;-70
2021/05/13 02:58:24;;;;;;;11.40;2.40;;;;;;;;;;4935056;29;20042;-71
2021/05/13 03:01:31;;;;;;;13.45;2.97;;;;;;;;;;4935260;29;20042;-70
2021/05/13 03:04:36;;;;;;;12.63;2.38;;;;;;;;;;4933978;29;20048;-70
2021/05/13 03:07:49;;;;;;;11.80;2.30;;;;;;;;;;4934979;29;20056;-73
2021/05/13 03:10:53;;;;;;;12.95;2.65;;;;;;;;;;4935009;29;20047;-70
2021/05/13 03:14:01;;;;;;;9.55;2.53;;;;;;;;;;4933996;29;20056;-70
2021/05/13 03:17:05;;;;;;;12.80;2.92;;;;;;;;;;4934869;29;20036;-71
2021/05/13 03:20:13;;;;;;;13.65;2.70;;;;;;;;;;4933768;29;20043;-71
2021/05/13 03:23:23;;;;;;;12.23;2.40;;;;;;;;;;4934504;29;20518;-70
2021/05/13 03:29:36;;;;;;;13.75;2.35;;;;;;;;;;4934117;29;20055;-71
2021/05/13 03:32:40;;;;;;;11.23;2.20;;;;;;;;;;4922988;29;20040;-69
2021/05/13 03:35:45;;;;;;;15.20;2.72;;;;;;;;;;4944317;29;20048;-70
2021/05/13 03:38:50;;;;;;;12.32;2.28;;;;;;;;;;4934083;29;20051;-70
2021/05/13 03:41:55;;;;;;;14.18;2.60;;;;;;;;;;4934411;29;20043;-70
2021/05/13 03:45:03;;;;;;;12.02;2.65;;;;;;;;;;4933556;29;20035;-69
2021/05/13 03:48:09;;;;;;;11.48;2.50;;;;;;;;;;4933982;29;20054;-70
2021/05/13 03:51:14;;;;;;;13.77;2.78;;;;;;;;;;4934156;29;20125;-70
2021/05/13 03:54:19;;;;;;;11.95;3.30;;;;;;;;;;4932975;29;20043;-69
2021/05/13 03:57:24;;;;;;;11.60;2.85;;;;;;;;;;4934019;29;20035;-71
2021/05/13 04:00:32;;;;;;;13.57;4.00;;;;;;;;;;4934307;29;20043;-69
2021/05/13 04:03:36;;;;;;;14.13;2.58;;;;;;;;;;4934008;29;20673;-70
2021/05/13 04:06:41;;;;;;;10.75;2.40;;;;;;;;;;4933706;29;20044;-69
2021/05/13 04:09:46;;;;;;;10.70;2.90;;;;;;;;;;4933802;29;20047;-71
2021/05/13 04:12:51;;;;;;;9.65;2.30;;;;;;;;;;4933966;29;20051;-70
2021/05/13 04:15:57;;;;;;;18.00;3.30;;;;;;;;;;4933822;29;20039;-70
2021/05/13 04:19:01;;;;;;;16.25;3.83;;;;;;;;;;4933950;29;20040;-70
2021/05/13 04:22:06;;;;;;;12.32;2.75;;;;;;;;;;4934281;29;20411;-69
2021/05/13 04:25:10;;;;;;;11.05;2.70;;;;;;;;;;4934002;29;20062;-71
2021/05/13 04:28:15;;;;;;;10.23;2.92;;;;;;;;;;4932995;29;20063;-69
2021/05/13 04:31:19;;;;;;;12.13;3.00;;;;;;;;;;4935882;29;20050;-70
2021/05/13 04:34:24;;;;;;;13.60;3.53;;;;;;;;;;4937792;29;20046;-72
2021/05/13 04:37:28;;;;;;;13.70;3.00;;;;;;;;;;4937529;29;20044;-69
2021/05/13 04:40:33;;;;;;;14.48;3.67;;;;;;;;;;4937695;29;20043;-69
2021/05/13 04:43:37;;;;;;;14.63;3.05;;;;;;;;;;4937870;29;20039;-70
2021/05/13 04:46:42;;;;;;;11.68;2.80;;;;;;;;;;4937738;29;20047;-70
2021/05/13 04:49:48;;;;;;;13.27;2.90;;;;;;;;;;4936824;29;20060;-70
2021/05/13 04:52:53;;;;;;;12.80;3.63;;;;;;;;;;4937719;29;20035;-70
2021/05/13 04:55:59;;;;;;;16.15;4.60;;;;;;;;;;4937639;29;20044;-70
2021/05/13 04:59:03;;;;;;;14.30;3.33;;;;;;;;;;4925626;29;20472;-70
2021/05/13 05:02:07;;;;;;;17.90;3.47;;;;;;;;;;4937598;29;20046;-71
2021/05/13 05:05:12;;;;;;;13.13;3.58;;;;;;;;;;4936810;29;20036;-69
2021/05/13 05:08:17;;;;;;;15.10;3.55;;;;;;;;;;4937264;29;20050;-73
2021/05/13 05:11:21;;;;;;;13.13;3.97;;;;;;;;;;4937069;29;20044;-70
2021/05/13 05:14:26;;;;;;;12.95;3.80;;;;;;;;;;4936232;29;20040;-70
2021/05/13 05:17:30;;;;;;;18.67;8.65;;;;;;;;;;4936775;29;20047;-70
2021/05/13 05:20:34;;;;;;;18.48;6.13;;;;;;;;;;4936949;29;20043;-70
2021/05/13 05:23:39;;;;;;;21.88;5.88;;;;;;;;;;4936717;29;20051;-69
2021/05/13 05:26:43;;;;;;;23.83;7.97;;;;;;;;;;4936375;29;20117;-67
2021/05/13 05:29:47;;;;;;;18.10;5.60;;;;;;;;;;4936419;29;20150;-68
2021/05/13 05:32:53;;;;;;;19.17;4.50;;;;;;;;;;4936742;29;20419;-68
2021/05/13 05:35:57;;;;;;;13.57;3.42;;;;;;;;;;4935233;29;20058;-69
2021/05/13 05:39:02;;;;;;;22.05;5.03;;;;;;;;;;4936292;29;20051;-68
2021/05/13 05:42:06;;;;;;;14.25;4.00;;;;;;;;;;4935627;29;20047;-68
2021/05/13 05:45:10;;;;;;;17.95;3.85;;;;;;;;;;4936437;29;20039;-68
2021/05/13 05:48:14;;;;;;;17.75;4.30;;;;;;;;;;4936327;29;20043;-68
2021/05/13 05:51:18;;;;;;;13.70;3.30;;;;;;;;;;4935587;29;20054;-67
2021/05/13 05:54:23;;;;;;;15.05;3.92;;;;;;;;;;4936110;29;20055;-68
2021/05/13 05:57:27;;;;;;;14.60;3.88;;;;;;;;;;4936098;29;20044;-66
2021/05/13 06:00:32;;;;;;;17.70;3.03;;;;;;;;;;4935971;29;20448;-67
2021/05/13 06:03:36;;;;;;;14.93;3.67;;;;;;;;;;4936057;29;20047;-72
2021/05/13 06:06:41;;;;;;;22.50;3.42;;;;;;;;;;4936108;29;20490;-68
2021/05/13 06:09:45;;;;;;;15.48;3.10;;;;;;;;;;4935783;29;20435;-69
2021/05/13 06:12:49;;;;;;;20.77;3.63;;;;;;;;;;4935717;29;20048;-70
2021/05/13 06:15:54;;;;;;;13.85;3.20;;;;;;;;;;4935604;29;20054;-70
2021/05/13 06:19:00;;;;;;;12.68;3.20;;;;;;;;;;4935839;29;20039;-70
2021/05/13 06:22:04;;;;;;;10.60;3.08;;;;;;;;;;4935211;29;20051;-76
2021/05/13 06:25:09;;;;;;;15.88;3.38;;;;;;;;;;4935779;29;20113;-70
2021/05/13 06:28:13;;;;;;;14.85;2.92;;;;;;;;;;4936075;29;20052;-69
2021/05/13 06:31:17;;;;;;;16.80;2.72;;;;;;;;;;4935914;29;20052;-69
2021/05/13 06:34:22;;;;;;;15.68;3.13;;;;;;;;;;4935330;29;20514;-68
2021/05/13 06:37:26;;;;;;;14.90;2.92;;;;;;;;;;4934844;29;20055;-73
2021/05/13 06:40:31;;;;;;;16.77;2.78;;;;;;;;;;4935804;29;20047;-73
2021/05/13 06:43:36;;;;;;;18.95;3.55;;;;;;;;;;4936063;29;20049;-79
2021/05/13 06:46:41;;;;;;;14.80;3.70;;;;;;;;;;4935644;29;20058;-69
2021/05/13 06:49:47;;;;;;;20.95;3.65;;;;;;;;;;4935243;29;20051;-70
2021/05/13 06:52:51;;;;;;;23.75;3.30;;;;;;;;;;4935518;29;20039;-71
2021/05/13 06:55:55;;;;;;;16.52;3.25;;;;;;;;;;4935467;29;20055;-74
2021/05/13 06:59:00;;;;;;;13.73;3.58;;;;;;;;;;4935784;29;20070;-75
2021/05/13 07:02:04;;;;;;;21.77;3.42;;;;;;;;;;4935719;29;20047;-80
2021/05/13 07:05:09;;;;;;;26.00;3.83;;;;;;;;;;4935232;29;20047;-75
2021/05/13 07:08:14;;;;;;;23.92;3.10;;;;;;;;;;4935126;29;20043;-76
2021/05/13 07:11:18;;;;;;;14.52;3.13;;;;;;;;;;4936555;29;20043;-79
2021/05/13 07:14:23;;;;;;;19.73;3.63;;;;;;;;;;4935352;29;20097;-78
2021/05/13 07:17:28;;;;;;;14.57;3.10;;;;;;;;;;4935221;29;20036;-79
2021/05/13 07:20:33;;;;;;;18.45;3.80;;;;;;;;;;4936749;29;20035;-75
2021/05/13 07:23:38;;;;;;;15.60;3.92;;;;;;;;;;4936906;29;20048;-82
2021/05/13 07:26:42;;;;;;;14.60;3.53;;;;;;;;;;4935601;29;20598;-76
2021/05/13 07:29:47;;;;;;;14.43;2.65;;;;;;;;;;4934724;29;20051;-81
2021/05/13 07:32:51;;;;;;;16.60;2.63;;;;;;;;;;4936268;29;20468;-79
2021/05/13 07:35:56;;;;;;;13.07;3.03;;;;;;;;;;4935880;29;20059;-78
2021/05/13 07:39:00;;;;;;;12.82;2.22;;;;;;;;;;4935343;29;20043;-76
2021/05/13 07:42:04;;;;;;;7.63;1.83;;;;;;;;;;4934488;29;20528;-73
2021/05/13 07:45:12;;;;;;;5.90;1.80;;;;;;;;;;4934524;29;20611;-69
2021/05/13 07:48:17;;;;;;;9.70;1.65;;;;;;;;;;4934176;29;20043;-69
2021/05/13 07:51:23;;;;;;;6.97;1.58;;;;;;;;;;4934129;29;20400;-69
2021/05/13 07:54:28;;;;;;;13.23;1.95;;;;;;;;;;4934208;29;20040;-70
2021/05/13 07:57:32;;;;;;;12.55;1.83;;;;;;;;;;4934200;29;20109;-69
2021/05/13 08:00:37;;;;;;;11.77;2.13;;;;;;;;;;4934435;29;20047;-69
2021/05/13 08:03:41;;;;;;;8.02;1.98;;;;;;;;;;4934405;29;20044;-69
2021/05/13 08:06:45;;;;;;;15.23;1.85;;;;;;;;;;4933693;29;20044;-69
2021/05/13 08:09:50;;;;;;;8.60;1.67;;;;;;;;;;4933239;29;20055;-68
2021/05/13 08:12:54;;;;;;;16.13;3.08;;;;;;;;;;4934133;29;20459;-69
2021/05/13 08:15:58;;;;;;;10.20;1.90;;;;;;;;;;4933156;29;20048;-72
2021/05/13 08:19:02;;;;;;;6.22;1.85;;;;;;;;;;4934222;29;20048;-69
2021/05/13 08:22:07;;;;;;;10.05;1.90;;;;;;;;;;4933939;29;20039;-68
2021/05/13 08:25:14;;;;;;;8.13;1.52;;;;;;;;;;4933671;29;20043;-69
2021/05/13 08:28:19;;;;;;;7.30;1.40;;;;;;;;;;4932814;29;20428;-69
2021/05/13 08:31:26;;;;;;;6.55;1.67;;;;;;;;;;4934035;29;20043;-69
2021/05/13 08:34:33;;;;;;;11.73;2.33;;;;;;;;;;4933526;29;20471;-69
2021/05/13 08:37:38;;;;;;;12.55;2.03;;;;;;;;;;4933779;29;20074;-69
2021/05/13 08:40:42;;;;;;;14.18;3.00;;;;;;;;;;4933668;29;20399;-68
2021/05/13 08:43:51;;;;;;;12.45;2.63;;;;;;;;;;4932960;29;20065;-70
2021/05/13 08:46:57;;;;;;;6.28;2.45;;;;;;;;;;4933127;29;20040;-67
2021/05/13 08:50:02;;;;;;;10.75;1.63;;;;;;;;;;4933430;29;20039;-69
2021/05/13 08:53:07;;;;;;;10.60;2.13;;;;;;;;;;4933798;29;20036;-69
2021/05/13 08:56:11;;;;;;;7.82;1.60;;;;;;;;;;4933445;29;20047;-69
2021/05/13 08:59:16;;;;;;;12.40;2.15;;;;;;;;;;4933744;29;20039;-69
2021/05/13 09:02:22;;;;;;;10.48;1.70;;;;;;;;;;4933566;29;20053;-69
2021/05/13 09:05:26;;;;;;;13.32;1.95;;;;;;;;;;4933777;29;20048;-70
2021/05/13 09:08:31;;;;;;;17.27;2.03;;;;;;;;;;4933488;29;20465;-67
2021/05/13 09:11:36;;;;;;;9.57;1.40;;;;;;;;;;4932595;29;20036;-69
2021/05/13 09:14:40;;;;;;;9.35;1.85;;;;;;;;;;4933794;29;20047;-68
2021/05/13 09:17:46;;;;;;;12.75;1.80;;;;;;;;;;4935903;29;20044;-68
2021/05/13 09:20:53;;;;;;;11.25;1.85;;;;;;;;;;4936926;29;20243;-69
2021/05/13 09:23:57;;;;;;;12.48;2.55;;;;;;;;;;4936357;29;20046;-69
2021/05/13 09:27:13;;;;;;;14.50;1.58;;;;;;;;;;4936881;29;20040;-70
2021/05/13 09:30:22;;;;;;;19.05;2.22;;;;;;;;;;4925155;29;20052;-68
2021/05/13 09:33:30;;;;;;;8.93;2.15;;;;;;;;;;4925143;29;20369;-69
2021/05/13 09:36:35;;;;;;;16.42;1.63;;;;;;;;;;4936748;29;20491;-69
2021/05/13 09:39:52;;;;;;;13.43;2.05;;;;;;;;;;4936561;29;20052;-71
2021/05/13 09:43:13;;;;;;;10.02;1.90;;;;;;;;;;4936750;29;20044;-70
2021/05/13 09:46:30;;;;;;;13.00;2.08;;;;;;;;;;4935930;29;20395;-69
2021/05/13 09:49:35;;;;;;;18.13;2.08;;;;;;;;;;4936455;29;20075;-69
2021/05/13 09:52:50;;;;;;;24.45;3.03;;;;;;;;;;4936651;29;20036;-68
2021/05/13 09:55:55;;;;;;;11.93;2.75;;;;;;;;;;4936817;29;20036;-70
2021/05/13 09:59:18;;;;;;;9.07;1.90;;;;;;;;;;4935725;29;20040;-68
2021/05/13 10:02:24;;;;;;;10.27;1.70;;;;;;;;;;4936367;29;20044;-71
2021/05/13 10:05:28;;;;;;;9.88;1.80;;;;;;;;;;4935935;29;20531;-70
2021/05/13 10:08:33;;;;;;;15.10;2.00;;;;;;;;;;4936083;29;20055;-68
2021/05/13 10:11:37;;;;;;;8.40;1.88;;;;;;;;;;4935539;29;20048;-69
2021/05/13 10:14:41;;;;;;;5.32;1.63;;;;;;;;;;4935871;29;20035;-69
2021/05/13 10:17:46;;;;;;;7.55;1.85;;;;;;;;;;4935067;29;20492;-68
2021/05/13 10:20:52;;;;;;;7.55;2.08;;;;;;;;;;4935859;29;20392;-69
2021/05/13 10:23:57;;;;;;;18.50;2.50;;;;;;;;;;4934784;29;20043;-69
2021/05/13 10:27:14;;;;;;;19.10;3.58;;;;;;;;;;4935846;29;20039;-69
2021/05/13 10:30:22;;;;;;;11.20;2.08;;;;;;;;;;4935230;29;20044;-68
2021/05/13 10:33:42;;;;;;;12.98;2.17;;;;;;;;;;4935465;29;20039;-69
2021/05/13 10:37:06;;;;;;;8.98;1.42;;;;;;;;;;4934609;29;20407;-70
2021/05/13 10:43:26;;;;;;;7.50;2.40;;;;;;;;;;4935507;29;20036;-69
2021/05/13 10:46:31;;;;;;;6.47;2.00;;;;;;;;;;4935403;29;20040;-72
2021/05/13 10:49:45;;;;;;;8.07;1.85;;;;;;;;;;4938377;29;20440;-78
2021/05/13 10:52:51;;;;;;;10.82;1.83;;;;;;;;;;4936397;29;20035;-73
2021/05/13 10:56:14;;;;;;;5.65;1.92;;;;;;;;;;4934633;29;20054;-74
2021/05/13 10:59:19;;;;;;;12.82;2.55;;;;;;;;;;4934420;29;20040;-74
2021/05/13 11:02:45;;;;;;;6.75;1.70;;;;;;;;;;4936201;29;20044;-75
2021/05/13 11:05:49;;;;;;;8.90;1.73;;;;;;;;;;4935484;29;20039;-71
2021/05/13 11:08:54;;;;;;;5.45;1.63;;;;;;;;;;4935869;29;20040;-74
2021/05/13 11:12:14;;;;;;;10.00;2.08;;;;;;;;;;4935291;29;20177;-74
2021/05/13 11:15:23;;;;;;;;;;;;;;;;;;4935850;29;20043;-77
2021/05/13 11:18:28;;;;;;;8.68;2.70;;;;;;;;;;4934992;29;19922;-76
2021/05/13 11:21:53;;;;;;;10.15;1.90;;;;;;;;;;4935426;29;20036;-77
2021/05/13 11:24:59;;;;;;;10.93;2.17;;;;;;;;;;4934893;29;20035;-77
2021/05/13 11:28:20;;;;;;;13.88;2.10;;;;;;;;;;4935335;29;20500;-74
2021/05/13 11:31:25;;;;;;;9.83;2.13;;;;;;;;;;4935339;29;20062;-75
2021/05/13 11:34:29;;;;;;;11.10;1.80;;;;;;;;;;4933746;29;20040;-76
2021/05/13 11:37:35;;;;;;;12.07;2.92;;;;;;;;;;4934028;29;20140;-75
2021/05/13 11:40:40;;;;;;;12.77;2.28;;;;;;;;;;4933900;29;20047;-74
2021/05/13 11:43:44;;;;;;;13.85;2.42;;;;;;;;;;4935700;29;20047;-74
2021/05/13 11:46:52;;;;;;;13.48;2.88;;;;;;;;;;4934547;29;20051;-75
2021/05/13 11:49:57;;;;;;;16.20;2.60;;;;;;;;;;4934673;29;20051;-75
2021/05/13 11:53:10;;;;;;;5.05;1.50;;;;;;;;;;4933811;29;20039;-76
2021/05/13 11:56:15;;;;;;;9.48;2.35;;;;;;;;;;4934576;29;20044;-77
2021/05/13 11:59:19;;;;;;;12.45;2.42;;;;;;;;;;4935200;29;20035;-75
2021/05/13 12:02:23;;;;;;;13.05;2.30;;;;;;;;;;4934622;29;20154;-76
2021/05/13 12:05:27;;;;;;;10.23;2.20;;;;;;;;;;4933527;29;20047;-76
2021/05/13 12:08:34;;;;;;;17.48;2.33;;;;;;;;;;4934144;29;20498;-76
2021/05/13 12:11:38;;;;;;;15.45;2.67;;;;;;;;;;4933956;29;20060;-75
2021/05/13 12:14:43;;;;;;;9.35;1.88;;;;;;;;;;4935917;29;20036;-79
2021/05/13 12:17:47;;;;;;;6.95;2.70;;;;;;;;;;4935007;29;20048;-75
2021/05/13 12:20:51;;;;;;;17.52;2.47;;;;;;;;;;4938166;29;20036;-73
2021/05/13 12:23:57;;;;;;;13.73;2.50;;;;;;;;;;4934004;29;20043;-75
2021/05/13 12:27:02;;;;;;;10.93;2.00;;;;;;;;;;4933966;29;20043;-75
2021/05/13 12:30:08;;;;;;;13.80;3.10;;;;;;;;;;4934286;29;20432;-69
2021/05/13 12:33:28;;;;;;;12.25;2.00;;;;;;;;;;4934310;29;20040;-74
2021/05/13 12:36:36;;;;;;;16.58;2.67;;;;;;;;;;4933875;29;20066;-74
2021/05/13 12:39:41;;;;;;;14.25;2.90;;;;;;;;;;4934669;29;20551;-78
2021/05/13 12:42:46;;;;;;;10.10;2.08;;;;;;;;;;4933635;29;20035;-69
2021/05/13 12:45:51;;;;;;;12.55;2.15;;;;;;;;;;4933908;29;20051;-69
2021/05/13 12:48:56;;;;;;;14.15;2.47;;;;;;;;;;4933594;29;20039;-72
2021/05/13 12:52:11;;;;;;;23.25;3.75;;;;;;;;;;4935432;29;20057;-71
2021/05/13 12:55:16;;;;;;;11.00;2.15;;;;;;;;;;4937503;29;20040;-70
2021/05/13 12:58:23;;;;;;;12.10;1.98;;;;;;;;;;4937456;29;20044;-70
2021/05/13 13:01:28;;;;;;;14.38;2.15;;;;;;;;;;4937714;29;20046;-71
2021/05/13 13:04:48;;;;;;;7.05;1.67;;;;;;;;;;4937211;29;20078;-70
2021/05/13 13:07:55;;;;;;;6.32;2.15;;;;;;;;;;4936553;29;20044;-69
2021/05/13 13:11:00;;;;;;;21.88;2.75;;;;;;;;;;4937455;29;20051;-69
2021/05/13 13:14:07;;;;;;;8.93;1.98;;;;;;;;;;4937421;29;20050;-70
2021/05/13 13:17:39;;;;;;;14.90;2.00;;;;;;;;;;4936436;29;20043;-69
2021/05/13 13:20:44;;;;;;;24.80;3.55;;;;;;;;;;4937299;29;20039;-70
2021/05/13 13:23:48;;;;;;;6.55;1.88;;;;;;;;;;4937116;29;20055;-70
2021/05/13 13:26:59;;;;;;;22.20;2.15;;;;;;;;;;4937384;29;20032;-71
2021/05/13 13:30:04;;;;;;;11.18;2.03;;;;;;;;;;4937096;29;20054;-70
2021/05/13 13:33:16;;;;;;;22.33;2.53;;;;;;;;;;4937661;29;20056;-71
2021/05/13 13:36:21;;;;;;;9.95;2.22;;;;;;;;;;4925295;29;20058;-69
2021/05/13 13:39:25;;;;;;;19.27;2.55;;;;;;;;;;4937223;29;20036;-70
2021/05/13 13:42:30;;;;;;;22.73;2.67;;;;;;;;;;4936934;29;20056;-71
2021/05/13 13:45:36;;;;;;;23.98;2.88;;;;;;;;;;4936646;29;20035;-70
2021/05/13 13:48:40;;;;;;;17.23;2.53;;;;;;;;;;4936470;29;20051;-69
2021/05/13 13:51:44;;;;;;;17.42;2.78;;;;;;;;;;4936230;29;20396;-68
2021/05/13 13:54:49;;;;;;;12.27;2.30;;;;;;;;;;4936683;29;20050;-74
2021/05/13 13:57:53;;;;;;;10.50;2.15;;;;;;;;;;4937563;29;20032;-73
2021/05/13 14:00:58;;;;;;;16.77;2.63;;;;;;;;;;4936533;29;20142;-79
2021/05/13 14:04:03;;;;;;;13.38;2.42;;;;;;;;;;4934765;29;20498;-69
2021/05/13 14:07:08;;;;;;;11.20;2.05;;;;;;;;;;4937044;29;20471;-73
2021/05/13 14:10:13;;;;;;;9.43;1.58;;;;;;;;;;4924781;29;20044;-76
2021/05/13 14:13:19;;;;;;;9.55;2.00;;;;;;;;;;4936249;29;20043;-75
2021/05/13 14:16:23;;;;;;;14.75;2.13;;;;;;;;;;4936686;29;20044;-68
2021/05/13 14:19:27;;;;;;;11.73;2.17;;;;;;;;;;4935655;29;20039;-75
2021/05/13 14:22:32;;;;;;;23.60;3.08;;;;;;;;;;4936344;29;20055;-77
2021/05/13 14:25:36;;;;;;;12.38;2.22;;;;;;;;;;4936124;29;20655;-74
2021/05/13 14:28:41;;;;;;;25.98;9.68;;;;;;;;;;4935878;29;20059;-75
2021/05/13 14:31:45;;;;;;;21.27;3.92;;;;;;;;;;4936420;29;20050;-74
2021/05/13 14:34:50;;;;;;;15.00;1.80;;;;;;;;;;4927043;29;20051;-76
2021/05/13 14:37:55;;;;;;;25.00;7.07;;;;;;;;;;4938855;29;20408;-80
2021/05/13 14:41:00;;;;;;;9.77;2.10;;;;;;;;;;4940785;29;20051;-80
2021/05/13 14:44:05;;;;;;;18.38;2.22;;;;;;;;;;4937233;29;20051;-75
2021/05/13 14:47:09;;;;;;;13.15;1.88;;;;;;;;;;4938131;29;20044;-75
2021/05/13 14:50:13;;;;;;;10.50;1.92;;;;;;;;;;4937685;29;20051;-80
2021/05/13 14:53:17;;;;;;;6.93;1.60;;;;;;;;;;4937123;29;20040;-79
2021/05/13 14:56:22;;;;;;;7.65;1.60;;;;;;;;;;4938915;29;20040;-80
2021/05/13 14:59:26;;;;;;;7.93;1.70;;;;;;;;;;4936582;29;20032;-79
2021/05/13 15:02:31;;;;;;;12.73;2.25;;;;;;;;;;4936998;29;20047;-83
2021/05/13 15:05:38;;;;;;;20.08;2.50;;;;;;;;;;4938746;29;20572;-73
2021/05/13 15:08:42;;;;;;;14.00;2.08;;;;;;;;;;4935110;29;20045;-77
2021/05/13 15:11:46;;;;;;;13.02;2.13;;;;;;;;;;4936219;29;20059;-74
2021/05/13 15:14:51;;;;;;;18.98;1.80;;;;;;;;;;4934896;29;20048;-76
2021/05/13 15:17:55;;;;;;;8.02;1.90;;;;;;;;;;4935187;29;20048;-76
2021/05/13 15:21:00;;;;;;;10.70;2.15;;;;;;;;;;4935166;29;20479;-74
2021/05/13 15:24:05;;;;;;;7.07;1.55;;;;;;;;;;4934724;29;20052;-76
2021/05/13 15:27:09;;;;;;;11.50;1.95;;;;;;;;;;4934724;29;20047;-73
2021/05/13 15:30:14;;;;;;;8.48;1.73;;;;;;;;;;4933863;29;20826;-76
2021/05/13 15:33:19;;;;;;;13.82;2.58;;;;;;;;;;4934423;29;20044;-76
2021/05/13 15:36:24;;;;;;;15.38;2.05;;;;;;;;;;4934200;29;20066;-77
2021/05/13 15:39:28;;;;;;;16.70;2.22;;;;;;;;;;4922072;29;20047;-75
2021/05/13 15:42:32;;;;;;;14.85;3.63;;;;;;;;;;4934225;29;20044;-76
2021/05/13 15:45:37;;;;;;;15.52;2.53;;;;;;;;;;4934390;29;20040;-74
2021/05/13 15:48:41;;;;;;;12.60;2.75;;;;;;;;;;4934648;29;20062;-75
2021/05/13 15:51:46;;;;;;;13.57;3.03;;;;;;;;;;4934392;29;20404;-75
2021/05/13 15:54:50;;;;;;;11.65;2.42;;;;;;;;;;4934336;29;20039;-75
2021/05/13 15:57:55;;;;;;;18.33;2.50;;;;;;;;;;4934635;29;20040;-74
2021/05/13 16:00:59;;;;;;;10.93;2.70;;;;;;;;;;4933274;29;20055;-74
2021/05/13 16:04:04;;;;;;;12.43;2.58;;;;;;;;;;4934164;29;20495;-74
2021/05/13 16:07:09;;;;;;;10.10;2.47;;;;;;;;;;4934363;29;20063;-75
2021/05/13 16:10:14;;;;;;;13.50;2.65;;;;;;;;;;4934392;29;20406;-75
2021/05/13 16:13:40;;;;;;;15.05;2.72;;;;;;;;;;4933989;29;20035;-76
2021/05/13 16:16:45;;;;;;;18.05;2.38;;;;;;;;;;4933997;29;20059;-75
2021/05/13 16:19:49;;;;;;;13.15;2.10;;;;;;;;;;4934207;29;20056;-75
2021/05/13 16:22:54;;;;;;;15.23;2.38;;;;;;;;;;4933841;29;20043;-74
2021/05/13 16:25:58;;;;;;;30.30;3.25;;;;;;;;;;4933652;29;20039;-75
2021/05/13 16:29:02;;;;;;;16.70;2.20;;;;;;;;;;4934349;29;20035;-74
2021/05/13 16:32:07;;;;;;;12.45;1.95;;;;;;;;;;4922188;29;20058;-75
2021/05/13 16:35:11;;;;;;;20.70;1.85;;;;;;;;;;4932678;29;20050;-75
2021/05/13 16:38:15;;;;;;;13.63;2.08;;;;;;;;;;4934113;29;20055;-75
2021/05/13 16:41:20;;;;;;;13.43;1.90;;;;;;;;;;4933664;29;20043;-76
2021/05/13 17:01:06;;;;;;;19.17;2.83;;;21.90;61.00;;;;;;5148992;27;20344;-78
2021/05/13 17:04:52;;;;;;;9.80;1.90;;;21.70;60.40;;;;;;5149150;27;20043;-78
2021/05/13 17:07:58;;;;;;;13.77;2.90;;;21.50;59.50;;;;;;5148826;27;20485;-78
2021/05/13 17:11:03;;;;;;;18.90;2.92;;;21.50;60.40;;;;;;5149188;27;20049;-77
2021/05/13 17:14:08;;;;;;;11.05;2.17;;;21.40;61.20;;;;;;5148518;27;20484;-78
2021/05/13 17:17:13;;;;;;;15.43;3.58;;;21.40;60.90;;;;;;5148599;27;20050;-78
2021/05/13 17:32:40;;;;;;;16.08;3.10;;;21.30;61.00;;;;;;5116426;27;20347;-78
2021/05/13 17:35:52;;;;;;;16.83;2.85;;;21.20;63.00;;;;;;5115311;28;20036;-78
2021/05/13 17:39:04;;;;;;;15.30;2.08;;;21.20;62.90;;;;;;5116658;28;20032;-79
2021/05/13 17:42:08;;;;;;;12.88;2.15;;;21.10;61.30;;;;;;4990496;28;20237;-78
2021/05/13 17:45:13;;;;;;;24.98;3.72;;;21.10;61.70;;;;;;4993055;28;20037;-79
2021/05/13 17:48:20;;;;;;;10.23;2.25;;;21.00;61.90;;;;;;4992174;28;20429;-78
2021/05/13 17:51:26;;;;;;;18.88;2.80;;;21.00;64.20;;;;;;4992810;28;20504;-78
2021/05/13 17:54:30;;;;;;;16.70;3.40;;;21.00;64.90;;;;;;4992589;28;20062;-78
2021/05/13 17:57:36;;;;;;;19.75;3.42;;;20.90;64.70;;;;;;4992929;28;20033;-77
2021/05/13 18:00:47;;;;;;;24.90;4.22;;;20.80;65.10;;;;;;4992724;28;20054;-78
2021/05/13 18:03:51;;;;;;;21.92;4.13;;;20.80;65.30;;;;;;4992640;28;20461;-79
2021/05/13 18:06:55;;;;;;;17.48;3.15;;;20.80;65.50;;;;;;4992321;28;20053;-78
2021/05/13 18:09:59;;;;;;;16.30;3.33;;;20.70;65.80;;;;;;4980895;28;20046;-78
2021/05/13 18:13:04;;;;;;;16.13;3.20;;;20.70;65.90;;;;;;4986511;28;20042;-77
2021/05/13 18:16:08;;;;;;;24.02;3.20;;;20.70;66.40;;;;;;4989930;28;20045;-77
2021/05/13 18:19:13;;;;;;;15.00;2.70;;;20.60;66.50;;;;;;4989794;28;20046;-80
2021/05/13 18:22:16;;;;;;;18.55;2.58;;;20.60;67.00;;;;;;5065020;28;20061;-78
2021/05/13 18:25:23;;;;;;;11.40;2.67;;;20.60;66.80;;;;;;5080906;28;20043;-77
2021/05/13 18:28:28;;;;;;;15.13;2.80;;;20.50;67.50;;;;;;5093052;28;20055;-79
2021/05/13 18:31:32;;;;;;;16.10;3.05;;;20.50;68.10;;;;;;5091599;28;20047;-78
2021/05/13 18:34:39;;;;;;;21.02;3.00;;;20.40;68.60;;;;;;5080913;28;20047;-78
2021/05/13 18:37:46;;;;;;;17.20;3.25;;;20.40;68.50;;;;;;5081336;28;20051;-80
2021/05/13 18:40:54;;;;;;;12.40;2.70;;;20.30;68.50;;;;;;5079453;28;20067;-80
2021/05/13 18:43:58;;;;;;;14.38;2.72;;;20.30;69.20;;;;;;5079331;28;20387;-79